sensor_id;sensor_type;location;lat;lon;timestamp;P1;durP1;ratioP1;P2;durP2;ratioP2
37655;SDS011;23498;50.958;3.124;2023-05-21T00:02:25;20.15;;;11.23;;
37655;SDS011;23498;50.958;3.124;2023-05-21T00:04:54;17.98;;;11.20;;
37655;SDS011;23498;50.958;3.124;2023-05-21T00:07:20;17.08;;;11.60;;
37655;SDS011;23498;50.958;3.124;2023-05-21T00:09:47;15.68;;;11.25;;
37655;SDS011;23498;50.958;3.124;2023-05-21T00:12:13;18.60;;;11.55;;
37655;SDS011;23498;50.958;3.124;2023-05-21T00:14:39;16.13;;;12.13;;
37655;SDS011;23498;50.958;3.124;2023-05-21T00:17:05;18.02;;;12.43;;
37655;SDS011;23498;50.958;3.124;2023-05-21T00:19:31;17.65;;;12.10;;
37655;SDS011;23498;50.958;3.124;2023-05-21T00:21:57;15.88;;;12.20;;
37655;SDS011;23498;50.958;3.124;2023-05-21T00:24:26;16.00;;;12.43;;
37655;SDS011;23498;50.958;3.124;2023-05-21T00:26:53;16.35;;;12.10;;
37655;SDS011;23498;50.958;3.124;2023-05-21T00:29:19;18.08;;;12.80;;
37655;SDS011;23498;50.958;3.124;2023-05-21T00:31:46;17.95;;;13.05;;
37655;SDS011;23498;50.958;3.124;2023-05-21T00:34:12;18.20;;;13.48;;
37655;SDS011;23498;50.958;3.124;2023-05-21T00:36:38;20.90;;;13.30;;
37655;SDS011;23498;50.958;3.124;2023-05-21T00:39:05;19.42;;;13.48;;
37655;SDS011;23498;50.958;3.124;2023-05-21T00:41:32;19.98;;;13.02;;
37655;SDS011;23498;50.958;3.124;2023-05-21T00:43:59;20.05;;;13.38;;
37655;SDS011;23498;50.958;3.124;2023-05-21T00:46:25;17.55;;;13.88;;
37655;SDS011;23498;50.958;3.124;2023-05-21T00:48:52;20.70;;;13.90;;
37655;SDS011;23498;50.958;3.124;2023-05-21T00:51:19;18.90;;;14.27;;
37655;SDS011;23498;50.958;3.124;2023-05-21T00:53:47;21.02;;;14.80;;
37655;SDS011;23498;50.958;3.124;2023-05-21T00:56:13;19.38;;;14.13;;
37655;SDS011;23498;50.958;3.124;2023-05-21T00:58:39;21.55;;;14.48;;
37655;SDS011;23498;50.958;3.124;2023-05-21T01:01:06;17.13;;;14.20;;
37655;SDS011;23498;50.958;3.124;2023-05-21T01:03:37;19.08;;;14.60;;
37655;SDS011;23498;50.958;3.124;2023-05-21T01:06:04;23.23;;;14.70;;
37655;SDS011;23498;50.958;3.124;2023-05-21T01:08:30;19.98;;;14.45;;
37655;SDS011;23498;50.958;3.124;2023-05-21T01:10:58;18.25;;;14.30;;
37655;SDS011;23498;50.958;3.124;2023-05-21T01:13:25;19.42;;;14.23;;
37655;SDS011;23498;50.958;3.124;2023-05-21T01:15:51;22.45;;;15.80;;
37655;SDS011;23498;50.958;3.124;2023-05-21T01:18:18;26.67;;;15.90;;
37655;SDS011;23498;50.958;3.124;2023-05-21T01:20:44;20.20;;;14.55;;
37655;SDS011;23498;50.958;3.124;2023-05-21T01:23:17;21.25;;;15.82;;
37655;SDS011;23498;50.958;3.124;2023-05-21T01:25:43;22.20;;;15.38;;
37655;SDS011;23498;50.958;3.124;2023-05-21T01:28:09;20.45;;;15.43;;
37655;SDS011;23498;50.958;3.124;2023-05-21T01:30:36;20.42;;;15.77;;
37655;SDS011;23498;50.958;3.124;2023-05-21T01:33:03;21.38;;;15.70;;
37655;SDS011;23498;50.958;3.124;2023-05-21T01:35:31;22.05;;;15.95;;
37655;SDS011;23498;50.958;3.124;2023-05-21T01:38:02;22.05;;;15.70;;
37655;SDS011;23498;50.958;3.124;2023-05-21T01:43:05;21.58;;;16.95;;
37655;SDS011;23498;50.958;3.124;2023-05-21T01:45:31;20.17;;;17.13;;
37655;SDS011;23498;50.958;3.124;2023-05-21T01:47:58;22.58;;;17.42;;
37655;SDS011;23498;50.958;3.124;2023-05-21T01:50:24;27.55;;;18.48;;
37655;SDS011;23498;50.958;3.124;2023-05-21T01:52:51;24.70;;;17.58;;
37655;SDS011;23498;50.958;3.124;2023-05-21T01:55:18;26.27;;;18.38;;
37655;SDS011;23498;50.958;3.124;2023-05-21T01:57:48;25.73;;;18.00;;
37655;SDS011;23498;50.958;3.124;2023-05-21T02:00:15;24.42;;;19.38;;
37655;SDS011;23498;50.958;3.124;2023-05-21T02:02:41;23.95;;;19.00;;
37655;SDS011;23498;50.958;3.124;2023-05-21T02:05:07;24.65;;;17.92;;
37655;SDS011;23498;50.958;3.124;2023-05-21T02:07:33;26.45;;;18.60;;
37655;SDS011;23498;50.958;3.124;2023-05-21T02:10:01;23.23;;;18.10;;
37655;SDS011;23498;50.958;3.124;2023-05-21T02:12:27;24.23;;;18.13;;
37655;SDS011;23498;50.958;3.124;2023-05-21T02:14:53;26.23;;;18.10;;
37655;SDS011;23498;50.958;3.124;2023-05-21T02:17:20;22.52;;;17.73;;
37655;SDS011;23498;50.958;3.124;2023-05-21T02:19:48;25.00;;;18.45;;
37655;SDS011;23498;50.958;3.124;2023-05-21T02:22:14;25.65;;;19.55;;
37655;SDS011;23498;50.958;3.124;2023-05-21T02:24:40;27.13;;;19.08;;
37655;SDS011;23498;50.958;3.124;2023-05-21T02:27:06;22.73;;;18.80;;
37655;SDS011;23498;50.958;3.124;2023-05-21T02:29:34;23.42;;;19.08;;
37655;SDS011;23498;50.958;3.124;2023-05-21T02:32:00;25.02;;;18.88;;
37655;SDS011;23498;50.958;3.124;2023-05-21T02:34:26;26.67;;;19.33;;
37655;SDS011;23498;50.958;3.124;2023-05-21T02:36:56;25.35;;;19.23;;
37655;SDS011;23498;50.958;3.124;2023-05-21T02:39:22;24.63;;;18.65;;
37655;SDS011;23498;50.958;3.124;2023-05-21T02:41:48;24.00;;;19.17;;
37655;SDS011;23498;50.958;3.124;2023-05-21T02:46:40;30.80;;;19.98;;
37655;SDS011;23498;50.958;3.124;2023-05-21T02:49:06;26.17;;;18.52;;
37655;SDS011;23498;50.958;3.124;2023-05-21T02:51:32;26.17;;;19.05;;
37655;SDS011;23498;50.958;3.124;2023-05-21T02:53:58;27.23;;;19.73;;
37655;SDS011;23498;50.958;3.124;2023-05-21T02:56:24;24.25;;;19.02;;
37655;SDS011;23498;50.958;3.124;2023-05-21T02:58:51;28.52;;;19.80;;
37655;SDS011;23498;50.958;3.124;2023-05-21T03:01:17;27.38;;;20.23;;
37655;SDS011;23498;50.958;3.124;2023-05-21T03:03:43;27.50;;;20.00;;
37655;SDS011;23498;50.958;3.124;2023-05-21T03:06:09;28.77;;;19.92;;
37655;SDS011;23498;50.958;3.124;2023-05-21T03:08:35;30.42;;;19.92;;
37655;SDS011;23498;50.958;3.124;2023-05-21T03:11:01;26.15;;;20.85;;
37655;SDS011;23498;50.958;3.124;2023-05-21T03:13:28;24.05;;;19.42;;
37655;SDS011;23498;50.958;3.124;2023-05-21T03:15:54;27.15;;;20.67;;
37655;SDS011;23498;50.958;3.124;2023-05-21T03:18:21;29.17;;;20.63;;
37655;SDS011;23498;50.958;3.124;2023-05-21T03:20:47;31.85;;;21.27;;
37655;SDS011;23498;50.958;3.124;2023-05-21T03:23:13;28.65;;;21.10;;
37655;SDS011;23498;50.958;3.124;2023-05-21T03:25:39;28.77;;;20.95;;
37655;SDS011;23498;50.958;3.124;2023-05-21T03:28:05;29.10;;;21.45;;
37655;SDS011;23498;50.958;3.124;2023-05-21T03:30:33;27.70;;;20.92;;
37655;SDS011;23498;50.958;3.124;2023-05-21T03:33:00;30.13;;;21.17;;
37655;SDS011;23498;50.958;3.124;2023-05-21T03:35:27;34.58;;;21.58;;
37655;SDS011;23498;50.958;3.124;2023-05-21T03:37:53;28.50;;;21.60;;
37655;SDS011;23498;50.958;3.124;2023-05-21T03:40:19;27.63;;;20.45;;
37655;SDS011;23498;50.958;3.124;2023-05-21T03:42:46;28.10;;;21.00;;
37655;SDS011;23498;50.958;3.124;2023-05-21T03:45:12;31.08;;;21.30;;
37655;SDS011;23498;50.958;3.124;2023-05-21T03:47:38;31.15;;;22.63;;
37655;SDS011;23498;50.958;3.124;2023-05-21T03:50:05;29.95;;;21.30;;
37655;SDS011;23498;50.958;3.124;2023-05-21T03:52:33;30.83;;;21.70;;
37655;SDS011;23498;50.958;3.124;2023-05-21T03:54:59;32.08;;;21.33;;
37655;SDS011;23498;50.958;3.124;2023-05-21T03:57:25;28.27;;;21.40;;
37655;SDS011;23498;50.958;3.124;2023-05-21T03:59:51;26.35;;;21.08;;
37655;SDS011;23498;50.958;3.124;2023-05-21T04:02:17;32.35;;;22.00;;
37655;SDS011;23498;50.958;3.124;2023-05-21T04:04:43;31.88;;;21.98;;
37655;SDS011;23498;50.958;3.124;2023-05-21T04:07:09;29.58;;;20.83;;
37655;SDS011;23498;50.958;3.124;2023-05-21T04:09:39;31.75;;;20.35;;
37655;SDS011;23498;50.958;3.124;2023-05-21T04:12:06;33.38;;;20.65;;
37655;SDS011;23498;50.958;3.124;2023-05-21T04:14:32;30.55;;;20.27;;
37655;SDS011;23498;50.958;3.124;2023-05-21T04:16:58;29.73;;;19.58;;
37655;SDS011;23498;50.958;3.124;2023-05-21T04:19:24;27.35;;;19.48;;
37655;SDS011;23498;50.958;3.124;2023-05-21T04:21:50;29.90;;;19.35;;
37655;SDS011;23498;50.958;3.124;2023-05-21T04:24:16;26.63;;;18.75;;
37655;SDS011;23498;50.958;3.124;2023-05-21T04:26:42;28.63;;;19.13;;
37655;SDS011;23498;50.958;3.124;2023-05-21T04:29:08;30.00;;;19.50;;
37655;SDS011;23498;50.958;3.124;2023-05-21T04:31:34;27.05;;;18.52;;
37655;SDS011;23498;50.958;3.124;2023-05-21T04:34:00;26.63;;;18.70;;
37655;SDS011;23498;50.958;3.124;2023-05-21T04:36:26;23.27;;;18.80;;
37655;SDS011;23498;50.958;3.124;2023-05-21T04:38:53;27.63;;;18.88;;
37655;SDS011;23498;50.958;3.124;2023-05-21T04:41:19;27.52;;;18.73;;
37655;SDS011;23498;50.958;3.124;2023-05-21T04:43:45;27.70;;;19.15;;
37655;SDS011;23498;50.958;3.124;2023-05-21T04:46:11;25.75;;;18.42;;
37655;SDS011;23498;50.958;3.124;2023-05-21T04:48:37;26.17;;;18.58;;
37655;SDS011;23498;50.958;3.124;2023-05-21T04:51:05;26.35;;;18.00;;
37655;SDS011;23498;50.958;3.124;2023-05-21T04:53:31;29.33;;;18.75;;
37655;SDS011;23498;50.958;3.124;2023-05-21T04:55:57;32.03;;;18.00;;
37655;SDS011;23498;50.958;3.124;2023-05-21T04:58:24;27.13;;;17.13;;
37655;SDS011;23498;50.958;3.124;2023-05-21T05:00:50;26.73;;;17.55;;
37655;SDS011;23498;50.958;3.124;2023-05-21T05:03:17;29.45;;;17.13;;
37655;SDS011;23498;50.958;3.124;2023-05-21T05:05:43;28.95;;;18.15;;
37655;SDS011;23498;50.958;3.124;2023-05-21T05:08:09;25.70;;;17.83;;
37655;SDS011;23498;50.958;3.124;2023-05-21T05:10:36;25.42;;;16.63;;
37655;SDS011;23498;50.958;3.124;2023-05-21T05:13:02;24.02;;;16.33;;
37655;SDS011;23498;50.958;3.124;2023-05-21T05:15:28;22.35;;;16.33;;
37655;SDS011;23498;50.958;3.124;2023-05-21T05:17:54;24.52;;;16.15;;
37655;SDS011;23498;50.958;3.124;2023-05-21T05:20:20;26.55;;;16.70;;
37655;SDS011;23498;50.958;3.124;2023-05-21T05:22:46;27.98;;;17.52;;
37655;SDS011;23498;50.958;3.124;2023-05-21T05:25:12;28.63;;;17.00;;
37655;SDS011;23498;50.958;3.124;2023-05-21T05:27:38;25.38;;;17.35;;
37655;SDS011;23498;50.958;3.124;2023-05-21T05:30:04;29.60;;;17.83;;
37655;SDS011;23498;50.958;3.124;2023-05-21T05:32:31;25.42;;;16.33;;
37655;SDS011;23498;50.958;3.124;2023-05-21T05:34:57;28.35;;;16.77;;
37655;SDS011;23498;50.958;3.124;2023-05-21T05:37:23;28.73;;;16.55;;
37655;SDS011;23498;50.958;3.124;2023-05-21T05:39:49;24.98;;;17.00;;
37655;SDS011;23498;50.958;3.124;2023-05-21T05:42:15;22.48;;;15.80;;
37655;SDS011;23498;50.958;3.124;2023-05-21T05:44:41;25.33;;;15.68;;
37655;SDS011;23498;50.958;3.124;2023-05-21T05:47:07;29.10;;;16.13;;
37655;SDS011;23498;50.958;3.124;2023-05-21T05:49:35;24.33;;;15.07;;
37655;SDS011;23498;50.958;3.124;2023-05-21T05:52:01;23.85;;;14.48;;
37655;SDS011;23498;50.958;3.124;2023-05-21T05:54:27;23.70;;;15.52;;
37655;SDS011;23498;50.958;3.124;2023-05-21T05:56:53;21.75;;;14.80;;
37655;SDS011;23498;50.958;3.124;2023-05-21T05:59:19;22.30;;;14.23;;
37655;SDS011;23498;50.958;3.124;2023-05-21T06:01:45;24.88;;;14.77;;
37655;SDS011;23498;50.958;3.124;2023-05-21T06:04:11;27.15;;;15.07;;
37655;SDS011;23498;50.958;3.124;2023-05-21T06:06:37;24.80;;;13.98;;
37655;SDS011;23498;50.958;3.124;2023-05-21T06:09:03;24.90;;;14.63;;
37655;SDS011;23498;50.958;3.124;2023-05-21T06:11:29;20.63;;;13.88;;
37655;SDS011;23498;50.958;3.124;2023-05-21T06:13:55;21.42;;;13.13;;
37655;SDS011;23498;50.958;3.124;2023-05-21T06:16:21;20.92;;;12.75;;
37655;SDS011;23498;50.958;3.124;2023-05-21T06:18:47;20.33;;;12.75;;
37655;SDS011;23498;50.958;3.124;2023-05-21T06:21:13;20.20;;;12.52;;
37655;SDS011;23498;50.958;3.124;2023-05-21T06:23:39;18.45;;;12.45;;
37655;SDS011;23498;50.958;3.124;2023-05-21T06:26:05;16.95;;;11.85;;
37655;SDS011;23498;50.958;3.124;2023-05-21T06:28:31;19.00;;;11.32;;
37655;SDS011;23498;50.958;3.124;2023-05-21T06:30:57;15.13;;;11.32;;
37655;SDS011;23498;50.958;3.124;2023-05-21T06:33:23;20.38;;;11.70;;
37655;SDS011;23498;50.958;3.124;2023-05-21T06:35:51;18.35;;;10.85;;
37655;SDS011;23498;50.958;3.124;2023-05-21T06:38:17;19.15;;;11.35;;
37655;SDS011;23498;50.958;3.124;2023-05-21T06:40:43;19.50;;;10.95;;
37655;SDS011;23498;50.958;3.124;2023-05-21T06:43:11;18.70;;;11.00;;
37655;SDS011;23498;50.958;3.124;2023-05-21T06:45:37;19.60;;;10.82;;
37655;SDS011;23498;50.958;3.124;2023-05-21T06:48:03;16.50;;;10.57;;
37655;SDS011;23498;50.958;3.124;2023-05-21T06:50:29;21.50;;;10.68;;
37655;SDS011;23498;50.958;3.124;2023-05-21T06:52:55;15.80;;;10.20;;
37655;SDS011;23498;50.958;3.124;2023-05-21T06:55:21;15.70;;;10.40;;
37655;SDS011;23498;50.958;3.124;2023-05-21T06:57:47;15.45;;;10.10;;
37655;SDS011;23498;50.958;3.124;2023-05-21T07:00:13;16.00;;;10.15;;
37655;SDS011;23498;50.958;3.124;2023-05-21T07:02:40;16.77;;;9.52;;
37655;SDS011;23498;50.958;3.124;2023-05-21T07:05:06;18.50;;;10.40;;
37655;SDS011;23498;50.958;3.124;2023-05-21T07:07:32;15.10;;;9.90;;
37655;SDS011;23498;50.958;3.124;2023-05-21T07:09:58;16.67;;;9.48;;
37655;SDS011;23498;50.958;3.124;2023-05-21T07:12:24;15.90;;;9.68;;
37655;SDS011;23498;50.958;3.124;2023-05-21T07:14:50;11.93;;;8.63;;
37655;SDS011;23498;50.958;3.124;2023-05-21T07:17:16;16.35;;;9.38;;
37655;SDS011;23498;50.958;3.124;2023-05-21T07:19:42;13.30;;;8.80;;
37655;SDS011;23498;50.958;3.124;2023-05-21T07:22:08;14.18;;;8.05;;
37655;SDS011;23498;50.958;3.124;2023-05-21T07:24:36;17.40;;;9.40;;
37655;SDS011;23498;50.958;3.124;2023-05-21T07:27:02;11.80;;;8.63;;
37655;SDS011;23498;50.958;3.124;2023-05-21T07:29:30;12.75;;;7.82;;
37655;SDS011;23498;50.958;3.124;2023-05-21T07:31:56;15.23;;;8.52;;
37655;SDS011;23498;50.958;3.124;2023-05-21T07:34:22;14.57;;;7.93;;
37655;SDS011;23498;50.958;3.124;2023-05-21T07:36:48;11.45;;;7.93;;
37655;SDS011;23498;50.958;3.124;2023-05-21T07:39:14;18.83;;;8.13;;
37655;SDS011;23498;50.958;3.124;2023-05-21T07:41:40;12.63;;;7.18;;
37655;SDS011;23498;50.958;3.124;2023-05-21T07:44:06;11.32;;;7.57;;
37655;SDS011;23498;50.958;3.124;2023-05-21T07:46:32;14.50;;;7.13;;
37655;SDS011;23498;50.958;3.124;2023-05-21T07:48:58;14.35;;;7.40;;
37655;SDS011;23498;50.958;3.124;2023-05-21T07:51:24;13.55;;;7.85;;
37655;SDS011;23498;50.958;3.124;2023-05-21T07:53:51;13.55;;;7.38;;
37655;SDS011;23498;50.958;3.124;2023-05-21T07:56:17;11.23;;;7.05;;
37655;SDS011;23498;50.958;3.124;2023-05-21T07:58:43;9.52;;;6.38;;
37655;SDS011;23498;50.958;3.124;2023-05-21T08:01:10;10.60;;;6.60;;
37655;SDS011;23498;50.958;3.124;2023-05-21T08:03:36;10.30;;;6.93;;
37655;SDS011;23498;50.958;3.124;2023-05-21T08:06:02;11.13;;;5.97;;
37655;SDS011;23498;50.958;3.124;2023-05-21T08:08:28;10.95;;;6.50;;
37655;SDS011;23498;50.958;3.124;2023-05-21T08:10:54;9.45;;;6.05;;
37655;SDS011;23498;50.958;3.124;2023-05-21T08:13:21;11.23;;;5.90;;
37655;SDS011;23498;50.958;3.124;2023-05-21T08:15:47;9.35;;;6.55;;
37655;SDS011;23498;50.958;3.124;2023-05-21T08:18:13;13.13;;;7.20;;
37655;SDS011;23498;50.958;3.124;2023-05-21T08:20:41;10.60;;;6.30;;
37655;SDS011;23498;50.958;3.124;2023-05-21T08:23:07;9.25;;;5.57;;
37655;SDS011;23498;50.958;3.124;2023-05-21T08:25:33;9.65;;;6.22;;
37655;SDS011;23498;50.958;3.124;2023-05-21T08:27:59;9.93;;;6.82;;
37655;SDS011;23498;50.958;3.124;2023-05-21T08:30:25;9.25;;;6.47;;
37655;SDS011;23498;50.958;3.124;2023-05-21T08:32:51;9.95;;;6.22;;
37655;SDS011;23498;50.958;3.124;2023-05-21T08:35:18;7.78;;;5.75;;
37655;SDS011;23498;50.958;3.124;2023-05-21T08:37:45;11.43;;;6.63;;
37655;SDS011;23498;50.958;3.124;2023-05-21T08:40:11;10.90;;;6.70;;
37655;SDS011;23498;50.958;3.124;2023-05-21T08:45:10;10.52;;;6.45;;
37655;SDS011;23498;50.958;3.124;2023-05-21T08:47:37;7.70;;;5.93;;
37655;SDS011;23498;50.958;3.124;2023-05-21T08:50:15;11.55;;;7.30;;
37655;SDS011;23498;50.958;3.124;2023-05-21T08:52:43;11.35;;;6.70;;
37655;SDS011;23498;50.958;3.124;2023-05-21T08:55:09;15.05;;;6.57;;
37655;SDS011;23498;50.958;3.124;2023-05-21T08:57:35;11.43;;;6.38;;
37655;SDS011;23498;50.958;3.124;2023-05-21T09:00:02;11.45;;;6.05;;
37655;SDS011;23498;50.958;3.124;2023-05-21T09:02:32;9.90;;;6.00;;
37655;SDS011;23498;50.958;3.124;2023-05-21T09:04:58;8.80;;;6.05;;
37655;SDS011;23498;50.958;3.124;2023-05-21T09:07:27;10.50;;;6.32;;
37655;SDS011;23498;50.958;3.124;2023-05-21T09:09:55;9.85;;;6.15;;
37655;SDS011;23498;50.958;3.124;2023-05-21T09:12:22;11.48;;;6.25;;
37655;SDS011;23498;50.958;3.124;2023-05-21T09:14:49;10.27;;;5.63;;
37655;SDS011;23498;50.958;3.124;2023-05-21T09:17:15;11.90;;;6.50;;
37655;SDS011;23498;50.958;3.124;2023-05-21T09:22:26;10.55;;;5.22;;
37655;SDS011;23498;50.958;3.124;2023-05-21T09:24:52;10.77;;;5.40;;
37655;SDS011;23498;50.958;3.124;2023-05-21T09:27:18;9.95;;;5.70;;
37655;SDS011;23498;50.958;3.124;2023-05-21T09:29:44;8.38;;;5.25;;
37655;SDS011;23498;50.958;3.124;2023-05-21T09:32:10;8.25;;;5.10;;
37655;SDS011;23498;50.958;3.124;2023-05-21T09:34:36;7.65;;;5.13;;
37655;SDS011;23498;50.958;3.124;2023-05-21T09:37:03;9.93;;;5.93;;
37655;SDS011;23498;50.958;3.124;2023-05-21T09:39:29;8.30;;;5.28;;
37655;SDS011;23498;50.958;3.124;2023-05-21T09:41:55;7.05;;;4.90;;
37655;SDS011;23498;50.958;3.124;2023-05-21T09:44:22;9.55;;;6.07;;
37655;SDS011;23498;50.958;3.124;2023-05-21T09:46:48;8.50;;;4.72;;
37655;SDS011;23498;50.958;3.124;2023-05-21T09:49:23;6.40;;;4.82;;
37655;SDS011;23498;50.958;3.124;2023-05-21T09:51:53;9.20;;;4.78;;
37655;SDS011;23498;50.958;3.124;2023-05-21T09:54:21;8.95;;;4.50;;
37655;SDS011;23498;50.958;3.124;2023-05-21T09:56:48;6.93;;;4.38;;
37655;SDS011;23498;50.958;3.124;2023-05-21T09:59:16;7.32;;;5.05;;
37655;SDS011;23498;50.958;3.124;2023-05-21T10:01:42;7.82;;;4.55;;
37655;SDS011;23498;50.958;3.124;2023-05-21T10:04:09;7.85;;;4.57;;
37655;SDS011;23498;50.958;3.124;2023-05-21T10:06:37;10.02;;;4.70;;
37655;SDS011;23498;50.958;3.124;2023-05-21T10:09:05;6.85;;;4.47;;
37655;SDS011;23498;50.958;3.124;2023-05-21T10:11:32;8.52;;;4.60;;
37655;SDS011;23498;50.958;3.124;2023-05-21T10:14:03;8.40;;;4.65;;
37655;SDS011;23498;50.958;3.124;2023-05-21T10:16:31;8.85;;;4.63;;
37655;SDS011;23498;50.958;3.124;2023-05-21T10:18:58;6.05;;;4.47;;
37655;SDS011;23498;50.958;3.124;2023-05-21T10:21:24;8.25;;;4.60;;
37655;SDS011;23498;50.958;3.124;2023-05-21T10:23:50;8.23;;;4.75;;
37655;SDS011;23498;50.958;3.124;2023-05-21T10:26:18;6.95;;;4.45;;
37655;SDS011;23498;50.958;3.124;2023-05-21T10:28:48;7.50;;;4.70;;
37655;SDS011;23498;50.958;3.124;2023-05-21T10:31:15;10.10;;;5.18;;
37655;SDS011;23498;50.958;3.124;2023-05-21T10:33:41;8.27;;;5.25;;
37655;SDS011;23498;50.958;3.124;2023-05-21T10:36:08;6.50;;;4.80;;
37655;SDS011;23498;50.958;3.124;2023-05-21T10:38:34;8.15;;;4.80;;
37655;SDS011;23498;50.958;3.124;2023-05-21T10:41:00;9.68;;;5.07;;
37655;SDS011;23498;50.958;3.124;2023-05-21T10:51:19;9.32;;;6.07;;
37655;SDS011;23498;50.958;3.124;2023-05-21T10:56:47;11.57;;;6.63;;
37655;SDS011;23498;50.958;3.124;2023-05-21T10:59:21;9.88;;;6.53;;
37655;SDS011;23498;50.958;3.124;2023-05-21T11:01:51;9.77;;;6.05;;
37655;SDS011;23498;50.958;3.124;2023-05-21T11:04:21;12.60;;;6.97;;
37655;SDS011;23498;50.958;3.124;2023-05-21T11:06:47;10.20;;;6.20;;
37655;SDS011;23498;50.958;3.124;2023-05-21T11:09:14;13.88;;;6.78;;
37655;SDS011;23498;50.958;3.124;2023-05-21T11:11:43;12.48;;;6.95;;
37655;SDS011;23498;50.958;3.124;2023-05-21T11:16:55;12.20;;;6.95;;
37655;SDS011;23498;50.958;3.124;2023-05-21T11:19:25;12.63;;;7.30;;
37655;SDS011;23498;50.958;3.124;2023-05-21T11:21:57;11.93;;;7.25;;
37655;SDS011;23498;50.958;3.124;2023-05-21T11:24:23;12.68;;;8.15;;
37655;SDS011;23498;50.958;3.124;2023-05-21T11:29:34;10.65;;;7.70;;
37655;SDS011;23498;50.958;3.124;2023-05-21T11:39:47;13.40;;;8.30;;
37655;SDS011;23498;50.958;3.124;2023-05-21T11:42:26;13.00;;;8.48;;
37655;SDS011;23498;50.958;3.124;2023-05-21T11:44:52;10.85;;;8.10;;
37655;SDS011;23498;50.958;3.124;2023-05-21T11:47:21;13.95;;;9.07;;
37655;SDS011;23498;50.958;3.124;2023-05-21T11:49:48;11.55;;;8.88;;
37655;SDS011;23498;50.958;3.124;2023-05-21T11:52:14;14.43;;;8.77;;
37655;SDS011;23498;50.958;3.124;2023-05-21T11:54:44;12.43;;;8.60;;
37655;SDS011;23498;50.958;3.124;2023-05-21T11:57:12;13.73;;;9.18;;
37655;SDS011;23498;50.958;3.124;2023-05-21T11:59:43;11.15;;;8.43;;
37655;SDS011;23498;50.958;3.124;2023-05-21T12:02:12;12.98;;;9.57;;
37655;SDS011;23498;50.958;3.124;2023-05-21T12:04:40;12.60;;;8.50;;
37655;SDS011;23498;50.958;3.124;2023-05-21T12:07:06;14.48;;;9.20;;
37655;SDS011;23498;50.958;3.124;2023-05-21T12:09:39;14.82;;;8.88;;
37655;SDS011;23498;50.958;3.124;2023-05-21T12:12:09;12.10;;;8.55;;
37655;SDS011;23498;50.958;3.124;2023-05-21T12:14:36;12.98;;;8.85;;
37655;SDS011;23498;50.958;3.124;2023-05-21T12:17:02;11.45;;;8.55;;
37655;SDS011;23498;50.958;3.124;2023-05-21T12:19:35;13.07;;;8.73;;
37655;SDS011;23498;50.958;3.124;2023-05-21T12:22:04;15.23;;;7.95;;
37655;SDS011;23498;50.958;3.124;2023-05-21T12:24:31;13.13;;;8.23;;
37655;SDS011;23498;50.958;3.124;2023-05-21T12:27:02;13.95;;;9.93;;
37655;SDS011;23498;50.958;3.124;2023-05-21T12:29:33;17.83;;;11.07;;
37655;SDS011;23498;50.958;3.124;2023-05-21T12:32:00;12.32;;;9.35;;
37655;SDS011;23498;50.958;3.124;2023-05-21T12:34:45;12.15;;;8.73;;
37655;SDS011;23498;50.958;3.124;2023-05-21T12:39:42;12.45;;;8.30;;
37655;SDS011;23498;50.958;3.124;2023-05-21T12:42:08;15.80;;;9.32;;
37655;SDS011;23498;50.958;3.124;2023-05-21T12:44:34;14.48;;;8.30;;
37655;SDS011;23498;50.958;3.124;2023-05-21T12:47:01;13.90;;;7.53;;
37655;SDS011;23498;50.958;3.124;2023-05-21T12:49:31;12.05;;;8.18;;
37655;SDS011;23498;50.958;3.124;2023-05-21T12:51:58;12.90;;;7.90;;
37655;SDS011;23498;50.958;3.124;2023-05-21T12:54:28;12.20;;;8.45;;
37655;SDS011;23498;50.958;3.124;2023-05-21T12:56:55;16.20;;;8.50;;
37655;SDS011;23498;50.958;3.124;2023-05-21T12:59:21;12.75;;;7.72;;
37655;SDS011;23498;50.958;3.124;2023-05-21T13:01:47;12.07;;;7.32;;
37655;SDS011;23498;50.958;3.124;2023-05-21T13:04:13;13.77;;;7.85;;
37655;SDS011;23498;50.958;3.124;2023-05-21T13:06:42;13.70;;;8.00;;
37655;SDS011;23498;50.958;3.124;2023-05-21T13:09:08;14.25;;;7.90;;
37655;SDS011;23498;50.958;3.124;2023-05-21T13:11:34;13.05;;;7.25;;
37655;SDS011;23498;50.958;3.124;2023-05-21T13:14:00;13.13;;;7.88;;
37655;SDS011;23498;50.958;3.124;2023-05-21T13:16:26;12.32;;;8.07;;
37655;SDS011;23498;50.958;3.124;2023-05-21T13:18:52;14.75;;;7.78;;
37655;SDS011;23498;50.958;3.124;2023-05-21T13:21:18;11.50;;;7.55;;
37655;SDS011;23498;50.958;3.124;2023-05-21T13:23:44;13.07;;;7.85;;
37655;SDS011;23498;50.958;3.124;2023-05-21T13:26:10;12.45;;;7.68;;
37655;SDS011;23498;50.958;3.124;2023-05-21T13:28:36;12.38;;;7.97;;
37655;SDS011;23498;50.958;3.124;2023-05-21T13:31:02;11.07;;;8.25;;
37655;SDS011;23498;50.958;3.124;2023-05-21T13:33:28;13.55;;;8.55;;
37655;SDS011;23498;50.958;3.124;2023-05-21T13:35:55;12.35;;;7.70;;
37655;SDS011;23498;50.958;3.124;2023-05-21T13:38:21;15.57;;;8.75;;
37655;SDS011;23498;50.958;3.124;2023-05-21T13:40:47;12.63;;;8.13;;
37655;SDS011;23498;50.958;3.124;2023-05-21T13:43:13;11.25;;;8.10;;
37655;SDS011;23498;50.958;3.124;2023-05-21T13:45:39;11.77;;;8.07;;
37655;SDS011;23498;50.958;3.124;2023-05-21T13:48:06;12.55;;;7.80;;
37655;SDS011;23498;50.958;3.124;2023-05-21T13:50:32;13.32;;;7.63;;
37655;SDS011;23498;50.958;3.124;2023-05-21T13:52:58;10.80;;;6.90;;
37655;SDS011;23498;50.958;3.124;2023-05-21T13:55:24;12.63;;;7.25;;
37655;SDS011;23498;50.958;3.124;2023-05-21T13:57:50;12.88;;;7.32;;
37655;SDS011;23498;50.958;3.124;2023-05-21T14:00:16;11.70;;;6.65;;
37655;SDS011;23498;50.958;3.124;2023-05-21T14:02:42;11.32;;;6.32;;
37655;SDS011;23498;50.958;3.124;2023-05-21T14:05:08;12.25;;;7.03;;
37655;SDS011;23498;50.958;3.124;2023-05-21T14:07:35;11.57;;;6.35;;
37655;SDS011;23498;50.958;3.124;2023-05-21T14:10:01;8.70;;;6.07;;
37655;SDS011;23498;50.958;3.124;2023-05-21T14:12:27;12.05;;;7.28;;
37655;SDS011;23498;50.958;3.124;2023-05-21T14:14:53;13.18;;;6.60;;
37655;SDS011;23498;50.958;3.124;2023-05-21T14:17:19;13.55;;;7.20;;
37655;SDS011;23498;50.958;3.124;2023-05-21T14:19:45;13.82;;;6.88;;
37655;SDS011;23498;50.958;3.124;2023-05-21T14:22:12;13.35;;;7.03;;
37655;SDS011;23498;50.958;3.124;2023-05-21T14:24:38;16.13;;;7.38;;
37655;SDS011;23498;50.958;3.124;2023-05-21T14:27:04;10.73;;;6.65;;
37655;SDS011;23498;50.958;3.124;2023-05-21T14:29:30;12.85;;;6.45;;
37655;SDS011;23498;50.958;3.124;2023-05-21T14:31:57;10.05;;;6.32;;
37655;SDS011;23498;50.958;3.124;2023-05-21T14:34:23;14.35;;;7.10;;
37655;SDS011;23498;50.958;3.124;2023-05-21T14:36:49;12.57;;;6.30;;
37655;SDS011;23498;50.958;3.124;2023-05-21T14:39:15;12.07;;;6.05;;
37655;SDS011;23498;50.958;3.124;2023-05-21T14:41:41;12.48;;;5.82;;
37655;SDS011;23498;50.958;3.124;2023-05-21T14:44:07;8.38;;;6.28;;
37655;SDS011;23498;50.958;3.124;2023-05-21T14:46:33;10.10;;;6.03;;
37655;SDS011;23498;50.958;3.124;2023-05-21T14:49:00;10.65;;;5.97;;
37655;SDS011;23498;50.958;3.124;2023-05-21T14:51:27;11.82;;;5.63;;
37655;SDS011;23498;50.958;3.124;2023-05-21T14:53:53;9.88;;;5.40;;
37655;SDS011;23498;50.958;3.124;2023-05-21T14:56:21;15.73;;;6.05;;
37655;SDS011;23498;50.958;3.124;2023-05-21T14:58:50;9.90;;;5.20;;
37655;SDS011;23498;50.958;3.124;2023-05-21T15:01:16;12.57;;;5.90;;
37655;SDS011;23498;50.958;3.124;2023-05-21T15:03:42;11.10;;;5.65;;
37655;SDS011;23498;50.958;3.124;2023-05-21T15:06:08;9.10;;;5.75;;